sensor_id;sensor_type;location;lat;lon;timestamp;pressure;altitude;pressure_sealevel;temperature;humidity
10992;BME280;5549;47.028;15.514;2023-07-28T00:00:58;96149.22;;;19.10;59.95
10992;BME280;5549;47.028;15.514;2023-07-28T00:03:26;96148.69;;;19.00;60.87
10992;BME280;5549;47.028;15.514;2023-07-28T00:05:53;96146.75;;;19.08;61.19
10992;BME280;5549;47.028;15.514;2023-07-28T00:08:22;96144.00;;;19.02;61.26
10992;BME280;5549;47.028;15.514;2023-07-28T00:10:52;96147.09;;;19.05;60.60
10992;BME280;5549;47.028;15.514;2023-07-28T00:13:19;96140.94;;;19.05;60.59
10992;BME280;5549;47.028;15.514;2023-07-28T00:15:47;96136.09;;;19.08;60.14
10992;BME280;5549;47.028;15.514;2023-07-28T00:18:16;96128.13;;;19.08;59.84
10992;BME280;5549;47.028;15.514;2023-07-28T00:20:44;96131.59;;;19.09;60.39
10992;BME280;5549;47.028;15.514;2023-07-28T00:23:12;96133.06;;;19.11;60.04
10992;BME280;5549;47.028;15.514;2023-07-28T00:25:41;96125.69;;;19.13;59.82
10992;BME280;5549;47.028;15.514;2023-07-28T00:28:10;96126.72;;;19.12;60.43
10992;BME280;5549;47.028;15.514;2023-07-28T00:30:40;96114.84;;;19.15;60.15
10992;BME280;5549;47.028;15.514;2023-07-28T00:33:08;96111.38;;;19.14;59.72
10992;BME280;5549;47.028;15.514;2023-07-28T00:35:35;96112.19;;;19.15;59.32
10992;BME280;5549;47.028;15.514;2023-07-28T00:38:05;96116.31;;;19.17;59.50
10992;BME280;5549;47.028;15.514;2023-07-28T00:40:35;96111.63;;;19.19;59.62
10992;BME280;5549;47.028;15.514;2023-07-28T00:43:06;96118.59;;;19.20;59.13
10992;BME280;5549;47.028;15.514;2023-07-28T00:45:35;96118.41;;;19.22;59.12
10992;BME280;5549;47.028;15.514;2023-07-28T00:48:11;96116.56;;;19.22;58.90
10992;BME280;5549;47.028;15.514;2023-07-28T00:50:40;96106.72;;;19.23;58.88
10992;BME280;5549;47.028;15.514;2023-07-28T00:53:10;96105.72;;;19.24;58.77
10992;BME280;5549;47.028;15.514;2023-07-28T00:55:40;96105.72;;;19.24;58.67
10992;BME280;5549;47.028;15.514;2023-07-28T00:58:11;96109.19;;;19.25;58.54
10992;BME280;5549;47.028;15.514;2023-07-28T01:00:39;96102.03;;;19.25;58.51
10992;BME280;5549;47.028;15.514;2023-07-28T01:03:09;96105.72;;;19.24;58.92
10992;BME280;5549;47.028;15.514;2023-07-28T01:05:53;96102.41;;;19.22;59.33
10992;BME280;5549;47.028;15.514;2023-07-28T01:08:34;96104.25;;;19.21;59.17
10992;BME280;5549;47.028;15.514;2023-07-28T01:11:03;96107.94;;;19.20;59.17
10992;BME280;5549;47.028;15.514;2023-07-28T01:13:34;96108.75;;;19.21;59.32
10992;BME280;5549;47.028;15.514;2023-07-28T01:16:01;96102.81;;;19.19;59.28
10992;BME280;5549;47.028;15.514;2023-07-28T01:18:31;96099.31;;;19.18;59.63
10992;BME280;5549;47.028;15.514;2023-07-28T01:21:04;96089.50;;;19.19;59.69
10992;BME280;5549;47.028;15.514;2023-07-28T01:23:44;96099.31;;;19.18;59.56
10992;BME280;5549;47.028;15.514;2023-07-28T01:26:29;96100.16;;;19.19;59.33
10992;BME280;5549;47.028;15.514;2023-07-28T01:29:00;96101.78;;;19.20;59.63
10992;BME280;5549;47.028;15.514;2023-07-28T01:31:27;96105.47;;;19.19;59.46
10992;BME280;5549;47.028;15.514;2023-07-28T01:33:57;96100.97;;;19.19;59.04
10992;BME280;5549;47.028;15.514;2023-07-28T01:36:25;96104.66;;;19.18;59.07
10992;BME280;5549;47.028;15.514;2023-07-28T01:38:53;96103.00;;;19.17;59.22
10992;BME280;5549;47.028;15.514;2023-07-28T01:41:21;96099.50;;;19.17;59.07
10992;BME280;5549;47.028;15.514;2023-07-28T01:43:50;96102.81;;;19.19;58.81
10992;BME280;5549;47.028;15.514;2023-07-28T01:46:21;96100.16;;;19.19;58.74
10992;BME280;5549;47.028;15.514;2023-07-28T01:48:49;96089.50;;;19.19;59.17
10992;BME280;5549;47.028;15.514;2023-07-28T01:51:28;96096.84;;;19.17;59.50
10992;BME280;5549;47.028;15.514;2023-07-28T01:53:56;96096.22;;;19.15;59.66
10992;BME280;5549;47.028;15.514;2023-07-28T01:56:24;96094.59;;;19.14;59.49
10992;BME280;5549;47.028;15.514;2023-07-28T01:58:52;96086.16;;;19.10;59.82
10992;BME280;5549;47.028;15.514;2023-07-28T02:01:20;96082.22;;;19.06;59.93
10992;BME280;5549;47.028;15.514;2023-07-28T02:03:51;96088.53;;;19.05;59.92
10992;BME280;5549;47.028;15.514;2023-07-28T02:06:20;96084.03;;;19.06;59.78
10992;BME280;5549;47.028;15.514;2023-07-28T02:08:48;96086.91;;;19.04;59.53
10992;BME280;5549;47.028;15.514;2023-07-28T02:11:16;96086.06;;;19.04;59.50
10992;BME280;5549;47.028;15.514;2023-07-28T02:13:44;96087.72;;;19.05;59.89
10992;BME280;5549;47.028;15.514;2023-07-28T02:16:15;96087.91;;;19.03;60.57
10992;BME280;5549;47.028;15.514;2023-07-28T02:18:43;96079.31;;;19.01;60.75
10992;BME280;5549;47.028;15.514;2023-07-28T02:21:13;96083.16;;;18.99;60.81
10992;BME280;5549;47.028;15.514;2023-07-28T02:23:43;96080.25;;;18.94;61.36
10992;BME280;5549;47.028;15.514;2023-07-28T02:26:11;96080.66;;;18.90;61.80
10992;BME280;5549;47.028;15.514;2023-07-28T02:28:40;96081.03;;;18.87;61.58
10992;BME280;5549;47.028;15.514;2023-07-28T02:31:07;96071.16;;;18.81;62.54
10992;BME280;5549;47.028;15.514;2023-07-28T02:33:36;96065.34;;;18.71;63.33
10992;BME280;5549;47.028;15.514;2023-07-28T02:36:05;96067.66;;;18.59;63.40
10992;BME280;5549;47.028;15.514;2023-07-28T02:38:35;96069.13;;;18.41;63.79
10992;BME280;5549;47.028;15.514;2023-07-28T02:41:04;96073.31;;;18.50;63.24
10992;BME280;5549;47.028;15.514;2023-07-28T02:43:34;96075.72;;;18.45;63.07
10992;BME280;5549;47.028;15.514;2023-07-28T02:46:02;96078.28;;;18.38;63.62
10992;BME280;5549;47.028;15.514;2023-07-28T02:48:30;96081.72;;;17.96;64.89
10992;BME280;5549;47.028;15.514;2023-07-28T02:50:59;96084.47;;;17.88;65.00
10992;BME280;5549;47.028;15.514;2023-07-28T02:53:29;96090.59;;;18.03;64.30
10992;BME280;5549;47.028;15.514;2023-07-28T02:55:57;96098.44;;;18.11;63.37
10992;BME280;5549;47.028;15.514;2023-07-28T02:58:26;96097.81;;;18.09;63.74
10992;BME280;5549;47.028;15.514;2023-07-28T03:00:54;96097.81;;;18.09;63.75
10992;BME280;5549;47.028;15.514;2023-07-28T03:03:25;96101.09;;;18.11;63.63
10992;BME280;5549;47.028;15.514;2023-07-28T03:05:53;96099.28;;;18.12;63.47
10992;BME280;5549;47.028;15.514;2023-07-28T03:08:23;96098.09;;;18.00;64.69
10992;BME280;5549;47.028;15.514;2023-07-28T03:10:56;96093.06;;;18.05;64.85
10992;BME280;5549;47.028;15.514;2023-07-28T03:13:27;96091.16;;;17.99;64.98
10992;BME280;5549;47.028;15.514;2023-07-28T03:15:54;96093.16;;;17.97;64.97
10992;BME280;5549;47.028;15.514;2023-07-28T03:18:22;96092.53;;;17.94;65.08
10992;BME280;5549;47.028;15.514;2023-07-28T03:20:53;96090.50;;;17.97;64.84
10992;BME280;5549;47.028;15.514;2023-07-28T03:23:25;96090.31;;;17.98;63.88
10992;BME280;5549;47.028;15.514;2023-07-28T03:25:52;96083.00;;;18.00;63.76
10992;BME280;5549;47.028;15.514;2023-07-28T03:28:20;96082.81;;;18.02;63.44
10992;BME280;5549;47.028;15.514;2023-07-28T03:30:47;96074.66;;;18.03;63.20
10992;BME280;5549;47.028;15.514;2023-07-28T03:33:17;96076.28;;;18.04;63.19
10992;BME280;5549;47.028;15.514;2023-07-28T03:35:47;96084.06;;;18.06;62.64
10992;BME280;5549;47.028;15.514;2023-07-28T03:38:14;96085.91;;;18.05;62.27
10992;BME280;5549;47.028;15.514;2023-07-28T03:40:43;96084.91;;;18.06;62.21
10992;BME280;5549;47.028;15.514;2023-07-28T03:43:13;96085.91;;;18.05;61.96
10992;BME280;5549;47.028;15.514;2023-07-28T03:45:41;96088.38;;;18.07;61.93
10992;BME280;5549;47.028;15.514;2023-07-28T03:48:09;96096.53;;;18.05;61.73
10992;BME280;5549;47.028;15.514;2023-07-28T03:50:36;96094.72;;;18.06;62.61
10992;BME280;5549;47.028;15.514;2023-07-28T03:53:04;96105.53;;;18.04;63.39
10992;BME280;5549;47.028;15.514;2023-07-28T03:55:32;96096.53;;;18.05;63.51
10992;BME280;5549;47.028;15.514;2023-07-28T03:58:03;96093.25;;;18.03;63.76
10992;BME280;5549;47.028;15.514;2023-07-28T04:00:33;96093.25;;;18.03;63.79
10992;BME280;5549;47.028;15.514;2023-07-28T04:03:03;96085.00;;;17.98;64.63
10992;BME280;5549;47.028;15.514;2023-07-28T04:05:32;96090.50;;;17.97;64.69
10992;BME280;5549;47.028;15.514;2023-07-28T04:08:02;96093.09;;;17.90;64.73
10992;BME280;5549;47.028;15.514;2023-07-28T04:10:29;96094.38;;;17.94;64.34
10992;BME280;5549;47.028;15.514;2023-07-28T04:12:57;96094.00;;;17.97;63.74
10992;BME280;5549;47.028;15.514;2023-07-28T04:15:28;96100.94;;;17.98;64.07
10992;BME280;5549;47.028;15.514;2023-07-28T04:17:58;96097.28;;;17.99;64.26
10992;BME280;5549;47.028;15.514;2023-07-28T04:20:27;96096.47;;;17.99;64.37
10992;BME280;5549;47.028;15.514;2023-07-28T04:22:55;96095.63;;;17.98;65.02
10992;BME280;5549;47.028;15.514;2023-07-28T04:25:22;96095.00;;;17.96;65.08
10992;BME280;5549;47.028;15.514;2023-07-28T04:27:50;96099.50;;;17.95;65.02
10992;BME280;5549;47.028;15.514;2023-07-28T04:30:20;96102.53;;;17.92;65.04
10992;BME280;5549;47.028;15.514;2023-07-28T04:32:49;96098.47;;;17.97;64.66
10992;BME280;5549;47.028;15.514;2023-07-28T04:35:16;96102.59;;;17.99;64.74
10992;BME280;5549;47.028;15.514;2023-07-28T04:37:46;96098.84;;;17.93;65.17
10992;BME280;5549;47.028;15.514;2023-07-28T04:40:14;96106.09;;;17.85;66.29
10992;BME280;5549;47.028;15.514;2023-07-28T04:42:42;96105.47;;;17.83;66.76
10992;BME280;5549;47.028;15.514;2023-07-28T04:45:10;96107.66;;;17.79;65.95
10992;BME280;5549;47.028;15.514;2023-07-28T04:47:37;96108.59;;;17.72;66.32
10992;BME280;5549;47.028;15.514;2023-07-28T04:50:09;96106.00;;;17.63;66.66
10992;BME280;5549;47.028;15.514;2023-07-28T04:52:40;96109.88;;;17.76;66.32
10992;BME280;5549;47.028;15.514;2023-07-28T04:55:08;96101.97;;;17.82;66.25
10992;BME280;5549;47.028;15.514;2023-07-28T04:57:35;96105.81;;;17.94;66.00
10992;BME280;5549;47.028;15.514;2023-07-28T05:00:07;96096.91;;;18.02;65.42
10992;BME280;5549;47.028;15.514;2023-07-28T05:02:35;96102.75;;;18.12;65.57
10992;BME280;5549;47.028;15.514;2023-07-28T05:05:05;96097.06;;;18.15;65.67
10992;BME280;5549;47.028;15.514;2023-07-28T05:07:34;96104.47;;;18.20;65.92
10992;BME280;5549;47.028;15.514;2023-07-28T05:10:04;96099.41;;;18.25;65.99
10992;BME280;5549;47.028;15.514;2023-07-28T05:12:32;96110.88;;;18.25;66.85
10992;BME280;5549;47.028;15.514;2023-07-28T05:14:59;96113.97;;;18.29;66.50
10992;BME280;5549;47.028;15.514;2023-07-28T05:17:27;96100.50;;;18.31;66.54
10992;BME280;5549;47.028;15.514;2023-07-28T05:19:54;96100.31;;;18.32;66.31
10992;BME280;5549;47.028;15.514;2023-07-28T05:22:24;96103.81;;;18.33;66.05
10992;BME280;5549;47.028;15.514;2023-07-28T05:24:55;96105.06;;;18.37;65.58
10992;BME280;5549;47.028;15.514;2023-07-28T05:27:25;96101.41;;;18.38;65.59
10992;BME280;5549;47.028;15.514;2023-07-28T05:29:53;96106.84;;;18.51;65.23
10992;BME280;5549;47.028;15.514;2023-07-28T05:32:20;96108.75;;;18.57;65.11
10992;BME280;5549;47.028;15.514;2023-07-28T05:34:48;96114.34;;;18.62;64.56
10992;BME280;5549;47.028;15.514;2023-07-28T05:37:15;96102.53;;;18.65;64.31
10992;BME280;5549;47.028;15.514;2023-07-28T05:39:43;96106.25;;;18.70;64.76
10992;BME280;5549;47.028;15.514;2023-07-28T05:42:12;96113.09;;;18.79;64.88
10992;BME280;5549;47.028;15.514;2023-07-28T05:44:41;96109.66;;;18.85;64.80
10992;BME280;5549;47.028;15.514;2023-07-28T05:47:09;96116.25;;;18.89;64.91
10992;BME280;5549;47.028;15.514;2023-07-28T05:49:37;96101.56;;;18.94;64.67
10992;BME280;5549;47.028;15.514;2023-07-28T05:52:05;96101.59;;;19.00;64.60
10992;BME280;5549;47.028;15.514;2023-07-28T05:54:32;96101.94;;;19.12;64.48
10992;BME280;5549;47.028;15.514;2023-07-28T05:57:00;96095.66;;;19.19;65.00
10992;BME280;5549;47.028;15.514;2023-07-28T05:59:29;96095.06;;;19.24;64.89
10992;BME280;5549;47.028;15.514;2023-07-28T06:01:56;96085.53;;;19.36;65.07
10992;BME280;5549;47.028;15.514;2023-07-28T06:04:26;96100.84;;;19.56;67.64
10992;BME280;5549;47.028;15.514;2023-07-28T06:06:54;96098.25;;;19.69;68.37
10992;BME280;5549;47.028;15.514;2023-07-28T06:09:21;96096.47;;;19.82;67.67
10992;BME280;5549;47.028;15.514;2023-07-28T06:11:49;96097.97;;;19.98;67.02
10992;BME280;5549;47.028;15.514;2023-07-28T06:14:16;96101.94;;;20.15;66.38
10992;BME280;5549;47.028;15.514;2023-07-28T06:16:47;96102.41;;;20.32;64.90
10992;BME280;5549;47.028;15.514;2023-07-28T06:19:17;96107.59;;;20.47;64.02
10992;BME280;5549;47.028;15.514;2023-07-28T06:21:50;96100.03;;;20.57;61.47
10992;BME280;5549;47.028;15.514;2023-07-28T06:24:20;96108.69;;;20.72;61.77
10992;BME280;5549;47.028;15.514;2023-07-28T06:26:50;96110.16;;;20.81;59.92
10992;BME280;5549;47.028;15.514;2023-07-28T06:29:18;96110.38;;;20.87;60.95
10992;BME280;5549;47.028;15.514;2023-07-28T06:31:47;96118.59;;;20.98;60.67
10992;BME280;5549;47.028;15.514;2023-07-28T06:34:17;96116.53;;;21.07;60.11
10992;BME280;5549;47.028;15.514;2023-07-28T06:36:44;96112.44;;;21.11;59.45
10992;BME280;5549;47.028;15.514;2023-07-28T06:39:12;96121.28;;;21.31;58.39
10992;BME280;5549;47.028;15.514;2023-07-28T06:41:42;96116.56;;;21.40;57.85
10992;BME280;5549;47.028;15.514;2023-07-28T06:44:11;96126.00;;;21.29;57.93
10992;BME280;5549;47.028;15.514;2023-07-28T06:46:41;96121.47;;;21.43;57.81
10992;BME280;5549;47.028;15.514;2023-07-28T06:49:10;96119.00;;;21.61;57.86
10992;BME280;5549;47.028;15.514;2023-07-28T06:51:38;96118.38;;;21.66;58.28
10992;BME280;5549;47.028;15.514;2023-07-28T06:54:08;96124.91;;;21.83;58.27
10992;BME280;5549;47.028;15.514;2023-07-28T06:56:39;96123.84;;;21.97;57.38
10992;BME280;5549;47.028;15.514;2023-07-28T06:59:09;96119.78;;;21.75;58.04
10992;BME280;5549;47.028;15.514;2023-07-28T07:01:37;96126.09;;;22.07;57.29
10992;BME280;5549;47.028;15.514;2023-07-28T07:04:05;96127.47;;;22.23;56.20
10992;BME280;5549;47.028;15.514;2023-07-28T07:06:36;96119.38;;;22.36;56.16
10992;BME280;5549;47.028;15.514;2023-07-28T07:09:06;96127.75;;;22.59;53.55
10992;BME280;5549;47.028;15.514;2023-07-28T07:11:36;96125.28;;;22.51;54.79
10992;BME280;5549;47.028;15.514;2023-07-28T07:14:04;96136.38;;;22.61;53.70
10992;BME280;5549;47.028;15.514;2023-07-28T07:16:32;96121.56;;;22.97;53.53
10992;BME280;5549;47.028;15.514;2023-07-28T07:19:00;96117.53;;;23.13;54.32
10992;BME280;5549;47.028;15.514;2023-07-28T07:21:28;96118.34;;;23.13;52.73
10992;BME280;5549;47.028;15.514;2023-07-28T07:23:59;96122.88;;;23.13;53.25
10992;BME280;5549;47.028;15.514;2023-07-28T07:26:27;96124.41;;;23.52;52.87
10992;BME280;5549;47.028;15.514;2023-07-28T07:28:55;96123.88;;;23.86;56.30
10992;BME280;5549;47.028;15.514;2023-07-28T07:31:26;96122.84;;;24.06;50.38
10992;BME280;5549;47.028;15.514;2023-07-28T07:33:53;96116.13;;;24.15;51.01
10992;BME280;5549;47.028;15.514;2023-07-28T07:36:23;96117.31;;;24.19;50.42
10992;BME280;5549;47.028;15.514;2023-07-28T07:38:51;96113.16;;;24.23;49.20
10992;BME280;5549;47.028;15.514;2023-07-28T07:41:22;96095.66;;;24.02;52.10
10992;BME280;5549;47.028;15.514;2023-07-28T07:43:53;96088.88;;;23.81;50.16
10992;BME280;5549;47.028;15.514;2023-07-28T07:46:21;96094.81;;;24.02;50.68
10992;BME280;5549;47.028;15.514;2023-07-28T07:48:49;96109.00;;;24.27;48.30
10992;BME280;5549;47.028;15.514;2023-07-28T07:51:17;96111.00;;;24.50;50.05
10992;BME280;5549;47.028;15.514;2023-07-28T07:53:44;96108.41;;;24.73;52.36
10992;BME280;5549;47.028;15.514;2023-07-28T07:56:12;96108.72;;;24.65;48.01
10992;BME280;5549;47.028;15.514;2023-07-28T07:58:42;96113.78;;;24.43;50.35
10992;BME280;5549;47.028;15.514;2023-07-28T08:01:09;96112.41;;;24.82;48.54
10992;BME280;5549;47.028;15.514;2023-07-28T08:03:37;96110.22;;;24.91;48.38
10992;BME280;5549;47.028;15.514;2023-07-28T08:06:07;96114.69;;;24.97;49.98
10992;BME280;5549;47.028;15.514;2023-07-28T08:08:37;96113.56;;;25.16;45.59
10992;BME280;5549;47.028;15.514;2023-07-28T08:11:07;96109.38;;;25.20;47.97
10992;BME280;5549;47.028;15.514;2023-07-28T08:13:34;96112.06;;;25.44;46.34
10992;BME280;5549;47.028;15.514;2023-07-28T08:16:04;96107.06;;;25.59;44.64
10992;BME280;5549;47.028;15.514;2023-07-28T08:18:31;96111.63;;;25.82;45.63
10992;BME280;5549;47.028;15.514;2023-07-28T08:21:01;96112.69;;;26.04;45.07
10992;BME280;5549;47.028;15.514;2023-07-28T08:23:31;96117.69;;;26.12;45.14
10992;BME280;5549;47.028;15.514;2023-07-28T08:25:59;96119.91;;;25.92;43.95
10992;BME280;5549;47.028;15.514;2023-07-28T08:28:29;96124.59;;;26.20;42.39
10992;BME280;5549;47.028;15.514;2023-07-28T08:30:56;96125.88;;;26.17;45.61
10992;BME280;5549;47.028;15.514;2023-07-28T08:33:26;96127.28;;;26.20;45.62
10992;BME280;5549;47.028;15.514;2023-07-28T08:35:54;96136.75;;;26.34;46.63
10992;BME280;5549;47.028;15.514;2023-07-28T08:38:23;96142.91;;;26.46;47.85
10992;BME280;5549;47.028;15.514;2023-07-28T08:40:53;96141.72;;;26.54;46.06
10992;BME280;5549;47.028;15.514;2023-07-28T08:43:23;96132.25;;;26.51;45.87
10992;BME280;5549;47.028;15.514;2023-07-28T08:45:51;96132.94;;;26.59;47.39
10992;BME280;5549;47.028;15.514;2023-07-28T08:48:20;96134.94;;;26.80;47.30
10992;BME280;5549;47.028;15.514;2023-07-28T08:50:53;96131.25;;;26.98;45.01
10992;BME280;5549;47.028;15.514;2023-07-28T08:53:20;96133.91;;;27.26;45.64
10992;BME280;5549;47.028;15.514;2023-07-28T08:55:48;96129.78;;;26.78;44.09
10992;BME280;5549;47.028;15.514;2023-07-28T08:58:17;96124.25;;;27.13;39.63
10992;BME280;5549;47.028;15.514;2023-07-28T09:00:46;96128.19;;;27.23;41.69
10992;BME280;5549;47.028;15.514;2023-07-28T09:03:16;96116.41;;;27.45;42.25
10992;BME280;5549;47.028;15.514;2023-07-28T09:05:44;96109.88;;;27.58;41.67
10992;BME280;5549;47.028;15.514;2023-07-28T09:08:17;96119.88;;;27.74;45.79
10992;BME280;5549;47.028;15.514;2023-07-28T09:10:48;96115.44;;;27.52;43.77
10992;BME280;5549;47.028;15.514;2023-07-28T09:13:17;96115.28;;;27.58;42.53
10992;BME280;5549;47.028;15.514;2023-07-28T09:15:48;96118.53;;;27.94;41.92
10992;BME280;5549;47.028;15.514;2023-07-28T09:18:17;96118.41;;;27.84;41.09
10992;BME280;5549;47.028;15.514;2023-07-28T09:20:44;96113.28;;;28.04;41.98
10992;BME280;5549;47.028;15.514;2023-07-28T09:23:15;96108.41;;;28.45;45.08
10992;BME280;5549;47.028;15.514;2023-07-28T09:25:45;96114.06;;;28.65;43.89
10992;BME280;5549;47.028;15.514;2023-07-28T09:28:13;96107.81;;;28.86;42.21
10992;BME280;5549;47.028;15.514;2023-07-28T09:30:47;96101.72;;;28.74;40.91
10992;BME280;5549;47.028;15.514;2023-07-28T09:33:29;96101.72;;;28.74;41.06
10992;BME280;5549;47.028;15.514;2023-07-28T09:36:08;96109.47;;;29.19;45.41
10992;BME280;5549;47.028;15.514;2023-07-28T09:38:40;96105.13;;;29.45;41.33
10992;BME280;5549;47.028;15.514;2023-07-28T09:41:09;96102.44;;;28.64;44.55
10992;BME280;5549;47.028;15.514;2023-07-28T09:43:41;96096.94;;;28.81;44.77
10992;BME280;5549;47.028;15.514;2023-07-28T09:46:11;96095.81;;;29.04;41.28
10992;BME280;5549;47.028;15.514;2023-07-28T09:48:45;96094.97;;;29.30;40.72
10992;BME280;5549;47.028;15.514;2023-07-28T09:51:18;96090.06;;;29.54;44.40
10992;BME280;5549;47.028;15.514;2023-07-28T09:54:05;96091.31;;;29.79;44.04
10992;BME280;5549;47.028;15.514;2023-07-28T09:56:33;96091.06;;;29.85;42.91
10992;BME280;5549;47.028;15.514;2023-07-28T09:59:07;96091.75;;;29.01;40.63
10992;BME280;5549;47.028;15.514;2023-07-28T10:01:38;96082.66;;;29.45;43.00
10992;BME280;5549;47.028;15.514;2023-07-28T10:04:08;96084.28;;;29.46;39.47
10992;BME280;5549;47.028;15.514;2023-07-28T10:06:36;96078.31;;;29.44;40.65
10992;BME280;5549;47.028;15.514;2023-07-28T10:09:06;96082.25;;;29.58;39.88
10992;BME280;5549;47.028;15.514;2023-07-28T10:11:34;96086.19;;;29.45;39.68
10992;BME280;5549;47.028;15.514;2023-07-28T10:14:08;96089.91;;;29.39;41.07
10992;BME280;5549;47.028;15.514;2023-07-28T10:16:40;96079.13;;;29.44;37.45
10992;BME280;5549;47.028;15.514;2023-07-28T10:19:10;96081.16;;;29.59;43.70
10992;BME280;5549;47.028;15.514;2023-07-28T10:21:40;96081.22;;;29.69;39.92
10992;BME280;5549;47.028;15.514;2023-07-28T10:24:10;96085.91;;;29.79;39.85
10992;BME280;5549;47.028;15.514;2023-07-28T10:26:40;96085.91;;;29.84;40.25
10992;BME280;5549;47.028;15.514;2023-07-28T10:29:10;96090.59;;;29.98;39.15
10992;BME280;5549;47.028;15.514;2023-07-28T10:31:51;96093.47;;;30.24;40.35
10992;BME280;5549;47.028;15.514;2023-07-28T10:34:21;96091.59;;;30.29;39.64
10992;BME280;5549;47.028;15.514;2023-07-28T10:36:57;96091.84;;;30.28;38.40
10992;BME280;5549;47.028;15.514;2023-07-28T10:39:29;96085.97;;;30.51;39.99
10992;BME280;5549;47.028;15.514;2023-07-28T10:42:04;96090.13;;;30.69;39.73
10992;BME280;5549;47.028;15.514;2023-07-28T10:44:32;96097.19;;;30.70;40.44
10992;BME280;5549;47.028;15.514;2023-07-28T10:47:01;96095.94;;;30.36;38.63
10992;BME280;5549;47.028;15.514;2023-07-28T10:49:32;96092.72;;;30.39;40.00
10992;BME280;5549;47.028;15.514;2023-07-28T10:52:01;96090.94;;;30.70;38.20
10992;BME280;5549;47.028;15.514;2023-07-28T10:54:34;96089.91;;;31.06;37.49
10992;BME280;5549;47.028;15.514;2023-07-28T10:57:05;96097.22;;;30.90;40.08
10992;BME280;5549;47.028;15.514;2023-07-28T10:59:33;96099.63;;;30.77;37.68
10992;BME280;5549;47.028;15.514;2023-07-28T11:02:02;96087.53;;;30.32;38.90
10992;BME280;5549;47.028;15.514;2023-07-28T11:04:32;96091.91;;;30.43;39.14
10992;BME280;5549;47.028;15.514;2023-07-28T11:07:02;96091.66;;;30.45;41.75
10992;BME280;5549;47.028;15.514;2023-07-28T11:09:33;96093.53;;;30.44;39.43
10992;BME280;5549;47.028;15.514;2023-07-28T11:12:04;96091.09;;;30.38;38.82
10992;BME280;5549;47.028;15.514;2023-07-28T11:14:36;96087.84;;;30.41;38.72
10992;BME280;5549;47.028;15.514;2023-07-28T11:17:06;96093.09;;;30.68;35.96
10992;BME280;5549;47.028;15.514;2023-07-28T11:19:34;96080.69;;;31.07;40.37
10992;BME280;5549;47.028;15.514;2023-07-28T11:22:04;96085.34;;;31.17;35.70
10992;BME280;5549;47.028;15.514;2023-07-28T11:24:36;96085.34;;;31.17;36.52
10992;BME280;5549;47.028;15.514;2023-07-28T11:27:04;96081.56;;;31.23;35.98
10992;BME280;5549;47.028;15.514;2023-07-28T11:29:34;96083.72;;;31.16;39.19
10992;BME280;5549;47.028;15.514;2023-07-28T11:32:03;96074.53;;;31.27;39.30
10992;BME280;5549;47.028;15.514;2023-07-28T11:34:35;96083.13;;;30.93;40.18
10992;BME280;5549;47.028;15.514;2023-07-28T11:37:05;96085.09;;;31.34;39.37
10992;BME280;5549;47.028;15.514;2023-07-28T11:39:36;96084.81;;;31.61;40.48
10992;BME280;5549;47.028;15.514;2023-07-28T11:42:06;96084.53;;;31.52;34.43
10992;BME280;5549;47.028;15.514;2023-07-28T11:44:34;96078.84;;;31.53;34.67
10992;BME280;5549;47.028;15.514;2023-07-28T11:47:05;96076.09;;;31.69;34.88
10992;BME280;5549;47.028;15.514;2023-07-28T11:49:47;96077.19;;;31.63;35.95
10992;BME280;5549;47.028;15.514;2023-07-28T11:52:15;96073.97;;;31.55;34.57
10992;BME280;5549;47.028;15.514;2023-07-28T11:54:46;96077.22;;;31.57;37.66
10992;BME280;5549;47.028;15.514;2023-07-28T11:57:16;96066.91;;;31.70;39.71
10992;BME280;5549;47.028;15.514;2023-07-28T11:59:44;96062.75;;;32.03;38.00
10992;BME280;5549;47.028;15.514;2023-07-28T12:02:11;96063.78;;;32.12;39.16
10992;BME280;5549;47.028;15.514;2023-07-28T12:04:40;96065.66;;;32.21;37.55
10992;BME280;5549;47.028;15.514;2023-07-28T12:07:15;96062.69;;;32.28;36.52
10992;BME280;5549;47.028;15.514;2023-07-28T12:09:51;96063.47;;;32.34;35.40
10992;BME280;5549;47.028;15.514;2023-07-28T12:12:25;96065.66;;;32.27;36.67
10992;BME280;5549;47.028;15.514;2023-07-28T12:14:55;96062.81;;;32.52;33.97
10992;BME280;5549;47.028;15.514;2023-07-28T12:17:26;96066.88;;;32.60;36.71
10992;BME280;5549;47.028;15.514;2023-07-28T12:19:58;96072.88;;;32.51;37.33
10992;BME280;5549;47.028;15.514;2023-07-28T12:22:28;96066.81;;;32.05;36.70
10992;BME280;5549;47.028;15.514;2023-07-28T12:24:59;96062.28;;;32.55;38.27
10992;BME280;5549;47.028;15.514;2023-07-28T12:27:30;96061.41;;;32.65;35.61
10992;BME280;5549;47.028;15.514;2023-07-28T12:30:00;96053.94;;;32.36;38.17
10992;BME280;5549;47.028;15.514;2023-07-28T12:32:28;96053.59;;;32.53;38.32
10992;BME280;5549;47.028;15.514;2023-07-28T12:34:56;96053.44;;;32.29;37.64
10992;BME280;5549;47.028;15.514;2023-07-28T12:37:23;96053.03;;;32.56;36.69
10992;BME280;5549;47.028;15.514;2023-07-28T12:39:53;96052.06;;;32.32;37.70
10992;BME280;5549;47.028;15.514;2023-07-28T12:42:22;96045.72;;;32.51;37.29
10992;BME280;5549;47.028;15.514;2023-07-28T12:44:50;96044.56;;;31.93;37.26
10992;BME280;5549;47.028;15.514;2023-07-28T12:47:17;96043.31;;;32.40;37.41
10992;BME280;5549;47.028;15.514;2023-07-28T12:49:45;96037.94;;;32.30;39.72
10992;BME280;5549;47.028;15.514;2023-07-28T12:52:15;96047.63;;;32.51;38.97
10992;BME280;5549;47.028;15.514;2023-07-28T12:54:42;96049.09;;;32.18;38.37
10992;BME280;5549;47.028;15.514;2023-07-28T12:57:10;96049.03;;;32.38;38.27
10992;BME280;5549;47.028;15.514;2023-07-28T12:59:40;96054.81;;;32.27;38.67
10992;BME280;5549;47.028;15.514;2023-07-28T13:02:10;96042.50;;;32.39;39.11
10992;BME280;5549;47.028;15.514;2023-07-28T13:04:38;96036.44;;;31.88;40.04
10992;BME280;5549;47.028;15.514;2023-07-28T13:07:07;96046.78;;;31.81;40.65
10992;BME280;5549;47.028;15.514;2023-07-28T13:09:37;96037.69;;;32.26;39.71
10992;BME280;5549;47.028;15.514;2023-07-28T13:12:08;96032.41;;;31.80;41.76